Mexia, Texas
Current Conditions -  °F | °C
As of 4:35 PM on Friday 19 Dec 2014 (Local Time) from KLXY Reporting Station
Haze Haze  
Wind Chill: 43°   Ceiling: 300
Heat Index: 47°   Visibility: 1.2mi
Dew Point: 47°   Wind: 8mph
Humidity: 97%   Direction: 360°N
Pressure: 30.13"   Gusts: NA
Location:  31.68°N, 96.48°W
Report Text: KLXY 192235Z AUTO 36007KT 1 1/4SM BR OVC003 09/08 A3013 RMK AO2 T00850081
Loading
Personal Weather Stations






























Interactive Weather Map New forecast layout! Learn more

10-Day Weather Forecast

Advertisements
Track Severe Weather on mobile